createdAt,value
2022-07-29T00:01:44.342Z,50.42
2022-07-29T00:04:14.283Z,50.49
2022-07-29T00:06:43.502Z,50.65
2022-07-29T00:09:12.729Z,50.83
2022-07-29T00:11:41.665Z,50.72
2022-07-29T00:14:10.513Z,50.74
2022-07-29T00:16:41.164Z,50.83
2022-07-29T00:19:09.975Z,51.07
2022-07-29T00:21:39.994Z,51.11
2022-07-29T00:24:08.891Z,51.31
2022-07-29T00:26:37.727Z,51.50
2022-07-29T00:29:32.970Z,51.49
2022-07-29T00:31:56.877Z,51.71
2022-07-29T00:34:43.072Z,51.81
2022-07-29T00:37:11.828Z,51.86
2022-07-29T00:39:40.749Z,51.84
2022-07-29T00:42:10.704Z,52.01
2022-07-29T00:44:40.106Z,52.17
2022-07-29T00:47:11.073Z,52.41
2022-07-29T00:49:40.750Z,52.49
2022-07-29T00:52:10.603Z,52.51
2022-07-29T00:54:44.703Z,52.78
2022-07-29T00:57:14.634Z,52.77
2022-07-29T00:59:43.931Z,52.99
2022-07-29T01:02:14.094Z,53.06
2022-07-29T01:04:43.214Z,53.03
2022-07-29T01:07:12.233Z,53.44
2022-07-29T01:09:46.623Z,53.39
2022-07-29T01:12:17.115Z,53.48
2022-07-29T01:14:46.512Z,53.52
2022-07-29T01:17:20.030Z,53.66
2022-07-29T01:19:51.749Z,54.00
2022-07-29T01:22:27.249Z,53.84
2022-07-29T01:25:04.735Z,53.54
2022-07-29T01:27:40.630Z,53.48
2022-07-29T01:30:13.251Z,53.53
2022-07-29T01:32:45.275Z,53.51
2022-07-29T01:35:18.797Z,53.40
2022-07-29T01:37:49.253Z,53.56
2022-07-29T01:40:22.229Z,53.57
2022-07-29T01:42:52.619Z,53.41
2022-07-29T01:45:25.593Z,53.22
2022-07-29T01:47:56.662Z,53.00
2022-07-29T01:50:28.954Z,52.86
2022-07-29T01:52:59.033Z,52.76
2022-07-29T01:55:31.396Z,52.63
2022-07-29T01:58:01.224Z,52.63
2022-07-29T02:00:32.803Z,52.98
2022-07-29T02:03:03.872Z,52.81
2022-07-29T02:05:34.841Z,52.81
2022-07-29T02:08:06.339Z,52.74
2022-07-29T02:10:36.561Z,53.06
2022-07-29T02:13:06.649Z,53.29
2022-07-29T02:15:37.751Z,53.33
2022-07-29T02:18:09.354Z,53.39
2022-07-29T02:20:39.996Z,53.43
2022-07-29T02:23:11.121Z,53.47
2022-07-29T02:25:40.155Z,53.47
2022-07-29T02:28:09.598Z,53.38
2022-07-29T02:30:42.601Z,53.46
2022-07-29T02:33:14.319Z,53.46
2022-07-29T02:35:44.063Z,53.48
2022-07-29T02:38:32.372Z,53.63
2022-07-29T02:41:02.544Z,53.78
2022-07-29T02:43:32.759Z,53.98
2022-07-29T02:46:05.943Z,54.22
2022-07-29T02:48:43.970Z,54.48
2022-07-29T02:51:43.795Z,54.66
2022-07-29T02:54:08.790Z,54.64
2022-07-29T02:56:39.199Z,54.57
2022-07-29T02:59:10.392Z,54.56
2022-07-29T03:01:42.411Z,54.62
2022-07-29T03:04:11.944Z,54.60
2022-07-29T03:06:43.079Z,54.59
2022-07-29T03:09:13.774Z,54.45
2022-07-29T03:11:49.480Z,54.33
2022-07-29T03:14:21.555Z,54.33
2022-07-29T03:16:52.857Z,54.20
2022-07-29T03:19:22.538Z,54.19
2022-07-29T03:21:51.461Z,54.18
2022-07-29T03:24:26.843Z,54.35
2022-07-29T03:26:56.768Z,54.48
2022-07-29T03:29:33.484Z,54.59
2022-07-29T03:32:08.302Z,54.75
2022-07-29T03:34:38.872Z,54.63
2022-07-29T03:37:08.738Z,54.71
2022-07-29T03:39:40.806Z,54.88
2022-07-29T03:42:12.066Z,54.68
2022-07-29T03:44:43.027Z,54.91
2022-07-29T03:47:16.074Z,54.79
2022-07-29T03:49:46.609Z,54.74
2022-07-29T03:52:15.818Z,55.02
2022-07-29T03:54:44.770Z,55.33
2022-07-29T03:57:13.970Z,55.69
2022-07-29T03:59:43.788Z,55.48
2022-07-29T04:02:26.214Z,55.68
2022-07-29T04:05:00.272Z,55.76
2022-07-29T04:07:31.063Z,56.01
2022-07-29T04:10:00.008Z,56.20
2022-07-29T04:12:29.574Z,56.13
2022-07-29T04:14:58.402Z,56.63
2022-07-29T04:17:28.731Z,56.89
2022-07-29T04:19:57.747Z,56.96
2022-07-29T04:22:26.835Z,57.34
2022-07-29T04:24:59.096Z,57.26
2022-07-29T04:27:32.253Z,57.30
2022-07-29T04:30:01.058Z,57.13
2022-07-29T04:32:31.358Z,57.00
2022-07-29T04:35:00.777Z,57.04
2022-07-29T04:37:29.562Z,57.30
2022-07-29T04:39:58.271Z,57.26
2022-07-29T04:42:27.890Z,57.66
2022-07-29T04:44:58.244Z,57.53
2022-07-29T04:47:31.659Z,57.73
2022-07-29T04:50:00.479Z,58.36
2022-07-29T04:52:29.285Z,58.43
2022-07-29T04:54:58.158Z,59.05
2022-07-29T04:57:26.846Z,59.10
2022-07-29T04:59:55.536Z,59.38
2022-07-29T05:02:24.715Z,60.06
2022-07-29T05:04:54.967Z,59.78
2022-07-29T05:07:23.667Z,60.02
2022-07-29T05:09:53.657Z,60.13
2022-07-29T05:12:22.628Z,60.21
2022-07-29T05:14:51.317Z,60.39
2022-07-29T05:17:20.268Z,60.16
2022-07-29T05:19:49.055Z,60.35
2022-07-29T05:22:19.173Z,60.41
2022-07-29T05:24:48.344Z,60.61
2022-07-29T05:27:17.126Z,60.28
2022-07-29T05:29:46.048Z,59.80
2022-07-29T05:32:15.034Z,59.68
2022-07-29T05:34:50.127Z,59.44
2022-07-29T05:37:21.164Z,59.19
2022-07-29T05:39:56.749Z,59.35
2022-07-29T05:42:26.595Z,59.26
2022-07-29T05:44:55.463Z,59.15
2022-07-29T05:47:24.524Z,59.17
2022-07-29T05:49:53.551Z,58.83
2022-07-29T05:52:23.750Z,59.02
2022-07-29T05:54:52.858Z,58.89
2022-07-29T05:57:22.857Z,58.79
2022-07-29T05:59:52.126Z,58.69
2022-07-29T06:02:20.947Z,58.92
2022-07-29T06:04:50.489Z,58.82
2022-07-29T06:07:19.385Z,58.84
2022-07-29T06:09:49.643Z,58.96
2022-07-29T06:12:18.704Z,58.87
2022-07-29T06:14:50.870Z,58.72
2022-07-29T06:17:22.655Z,59.02
2022-07-29T06:19:51.388Z,58.98
2022-07-29T06:22:20.746Z,58.83
2022-07-29T06:24:51.264Z,58.66
2022-07-29T06:27:20.102Z,58.72
2022-07-29T06:29:48.884Z,58.88
2022-07-29T06:32:17.999Z,58.79
2022-07-29T06:34:51.932Z,58.70
2022-07-29T06:37:20.842Z,58.39
2022-07-29T06:40:11.211Z,58.32
2022-07-29T06:42:43.710Z,58.40
2022-07-29T06:45:12.521Z,58.31
2022-07-29T06:47:41.459Z,58.27
2022-07-29T06:50:12.807Z,58.16
2022-07-29T06:52:41.844Z,58.37
2022-07-29T06:55:12.457Z,58.31
2022-07-29T06:57:54.067Z,58.05
2022-07-29T07:00:23.097Z,58.32
2022-07-29T07:02:51.826Z,58.31
2022-07-29T07:05:20.754Z,58.20
2022-07-29T07:07:49.747Z,58.02
2022-07-29T07:10:19.966Z,58.16
2022-07-29T07:12:48.674Z,58.23
2022-07-29T07:15:17.537Z,58.17
2022-07-29T07:17:46.261Z,58.16
2022-07-29T07:20:14.908Z,58.05
2022-07-29T07:22:43.834Z,57.81
2022-07-29T07:25:12.933Z,57.91
2022-07-29T07:27:43.403Z,57.78
2022-07-29T07:30:12.697Z,57.71
2022-07-29T07:32:41.416Z,57.62
2022-07-29T07:35:10.791Z,57.77
2022-07-29T07:37:41.450Z,57.52
2022-07-29T07:40:11.286Z,57.34
2022-07-29T07:42:40.782Z,57.54
2022-07-29T07:45:16.178Z,57.35
2022-07-29T07:47:45.761Z,57.47
2022-07-29T07:50:18.649Z,57.43
2022-07-29T07:52:48.880Z,57.07
2022-07-29T07:55:18.252Z,56.57
2022-07-29T07:57:47.042Z,56.92
2022-07-29T08:00:18.239Z,56.67
2022-07-29T08:02:47.123Z,56.92
2022-07-29T08:05:18.157Z,57.07
2022-07-29T08:07:47.754Z,56.76
2022-07-29T08:10:36.846Z,56.68
2022-07-29T08:13:05.771Z,56.43
2022-07-29T08:15:35.919Z,56.52
2022-07-29T08:18:08.621Z,56.74
2022-07-29T08:20:39.277Z,56.58
2022-07-29T08:23:09.596Z,56.65
2022-07-29T08:25:40.088Z,56.54
2022-07-29T08:28:09.635Z,56.51
2022-07-29T08:30:39.705Z,56.52
2022-07-29T08:33:08.388Z,56.29
2022-07-29T08:35:37.609Z,56.54
2022-07-29T08:38:06.352Z,56.50
2022-07-29T08:40:35.034Z,56.19
2022-07-29T08:43:08.324Z,56.02
2022-07-29T08:45:44.328Z,56.14
2022-07-29T08:48:19.767Z,56.00
2022-07-29T08:50:49.587Z,55.68
2022-07-29T08:53:19.641Z,56.00
2022-07-29T08:55:49.576Z,55.55
2022-07-29T08:58:22.882Z,55.81
2022-07-29T09:00:55.254Z,55.64
2022-07-29T09:03:25.584Z,55.43
2022-07-29T09:05:55.408Z,55.41
2022-07-29T09:08:25.092Z,55.30
2022-07-29T09:10:54.611Z,55.35
2022-07-29T09:13:23.838Z,55.33
2022-07-29T09:15:53.883Z,55.18
2022-07-29T09:18:39.563Z,55.10
2022-07-29T09:21:27.135Z,55.06
2022-07-29T09:24:03.652Z,55.10
2022-07-29T09:26:33.408Z,55.06
2022-07-29T09:29:02.129Z,54.89
2022-07-29T09:31:39.425Z,54.98
2022-07-29T09:34:10.295Z,54.55
2022-07-29T09:36:42.391Z,54.59
2022-07-29T09:39:11.817Z,54.55
2022-07-29T09:41:48.008Z,54.15
2022-07-29T09:44:17.855Z,54.32
2022-07-29T09:47:06.858Z,54.45
2022-07-29T09:49:36.905Z,54.28
2022-07-29T09:52:06.989Z,54.32
2022-07-29T09:54:38.912Z,54.37
2022-07-29T09:57:09.927Z,53.97
2022-07-29T09:59:50.201Z,53.50
2022-07-29T10:02:23.652Z,53.82
2022-07-29T10:04:53.088Z,53.66
2022-07-29T10:07:22.114Z,53.71
2022-07-29T10:09:57.897Z,53.61
2022-07-29T10:12:26.854Z,53.60
2022-07-29T10:14:55.814Z,53.59
2022-07-29T10:17:26.054Z,53.67
2022-07-29T10:19:55.187Z,53.64
2022-07-29T10:22:50.800Z,53.56
2022-07-29T10:25:13.129Z,53.21
2022-07-29T10:27:41.827Z,53.40
2022-07-29T10:30:11.280Z,53.21
2022-07-29T10:32:57.755Z,53.12
2022-07-29T10:35:44.429Z,53.13
2022-07-29T10:38:26.692Z,53.18
2022-07-29T10:41:19.343Z,52.85
2022-07-29T10:43:51.249Z,52.98
2022-07-29T10:46:21.014Z,52.64
2022-07-29T10:49:09.739Z,52.72
2022-07-29T10:51:57.793Z,52.79
2022-07-29T10:54:51.145Z,52.89
2022-07-29T10:57:53.824Z,52.85
2022-07-29T11:00:33.129Z,52.65
2022-07-29T11:03:04.689Z,52.39
2022-07-29T11:05:56.872Z,52.82
2022-07-29T11:08:29.232Z,52.58
2022-07-29T11:11:17.340Z,52.42
2022-07-29T11:13:55.812Z,52.05
2022-07-29T11:16:26.651Z,52.16
2022-07-29T11:19:26.357Z,51.80
2022-07-29T11:21:59.260Z,51.86
2022-07-29T11:24:30.263Z,51.63
2022-07-29T11:27:19.657Z,51.54
2022-07-29T11:29:58.543Z,51.11
2022-07-29T11:32:29.409Z,51.00
2022-07-29T11:35:18.486Z,50.97
2022-07-29T11:37:55.353Z,50.81
2022-07-29T11:40:26.855Z,50.79
2022-07-29T11:42:55.566Z,51.04
2022-07-29T11:45:44.460Z,50.83
2022-07-29T11:48:28.774Z,50.85
2022-07-29T11:51:00.847Z,50.79
2022-07-29T11:53:32.546Z,50.67
2022-07-29T11:56:03.646Z,50.75
2022-07-29T11:58:33.736Z,50.62
2022-07-29T12:01:04.948Z,50.56
2022-07-29T12:03:36.961Z,50.58
2022-07-29T12:06:14.800Z,50.28
2022-07-29T12:08:44.949Z,50.29
2022-07-29T12:11:21.415Z,50.17
2022-07-29T12:13:51.591Z,49.94
2022-07-29T12:16:25.584Z,50.37
2022-07-29T12:18:59.829Z,50.35
2022-07-29T12:21:29.311Z,50.01
2022-07-29T12:24:05.413Z,49.78
2022-07-29T12:26:40.481Z,49.66
2022-07-29T12:29:14.084Z,50.04
2022-07-29T12:31:47.503Z,49.60
2022-07-29T12:34:17.764Z,49.48
2022-07-29T12:36:46.713Z,49.49
2022-07-29T12:39:15.487Z,49.27
2022-07-29T12:41:44.443Z,49.38
2022-07-29T12:44:13.357Z,49.12
2022-07-29T12:46:42.434Z,49.33
2022-07-29T12:49:23.251Z,49.17
2022-07-29T12:51:52.396Z,49.23
2022-07-29T12:54:21.781Z,49.34
2022-07-29T12:56:59.941Z,49.18
2022-07-29T12:59:29.200Z,49.28
2022-07-29T13:02:01.035Z,49.19
2022-07-29T13:04:32.882Z,49.07
2022-07-29T13:08:29.522Z,48.91
2022-07-29T13:09:51.703Z,48.89
2022-07-29T13:12:21.863Z,48.60
2022-07-29T13:14:51.404Z,48.48
2022-07-29T13:17:21.751Z,48.36
2022-07-29T13:19:53.037Z,48.43
2022-07-29T13:22:23.958Z,48.36
2022-07-29T13:24:53.904Z,48.12
2022-07-29T13:27:23.747Z,48.23
2022-07-29T13:29:53.486Z,48.57
2022-07-29T13:32:28.376Z,48.61
2022-07-29T13:35:00.041Z,48.52
2022-07-29T13:37:30.743Z,48.56
2022-07-29T13:40:00.335Z,48.47
2022-07-29T13:42:29.416Z,48.72
2022-07-29T13:44:58.235Z,48.54
2022-07-29T13:47:32.247Z,48.71
2022-07-29T13:50:03.708Z,48.74
2022-07-29T13:52:35.516Z,48.63
2022-07-29T13:55:04.708Z,48.61
2022-07-29T13:57:33.824Z,48.57
2022-07-29T14:00:02.740Z,48.55
2022-07-29T14:02:38.660Z,48.71
2022-07-29T14:05:10.800Z,48.96
2022-07-29T14:07:39.995Z,48.71
2022-07-29T14:10:09.183Z,48.51
2022-07-29T14:12:38.055Z,48.62
2022-07-29T14:15:07.456Z,49.25
2022-07-29T14:17:36.420Z,49.88
2022-07-29T14:20:05.659Z,49.88
2022-07-29T14:22:40.200Z,50.45
2022-07-29T14:25:14.611Z,50.86
2022-07-29T14:27:44.613Z,51.23
2022-07-29T14:30:13.950Z,51.79
2022-07-29T14:32:42.673Z,52.05
2022-07-29T14:35:11.566Z,51.34
2022-07-29T14:37:43.379Z,51.63
2022-07-29T14:40:12.595Z,51.37
2022-07-29T14:42:41.436Z,51.15
2022-07-29T14:45:11.243Z,50.03
2022-07-29T14:47:40.924Z,50.31
2022-07-29T14:50:10.161Z,50.07
2022-07-29T14:52:39.116Z,50.44
2022-07-29T14:55:16.685Z,49.90
2022-07-29T14:57:49.601Z,49.37
2022-07-29T15:00:19.113Z,48.33
2022-07-29T15:03:01.390Z,48.29
2022-07-29T15:05:31.423Z,47.77
2022-07-29T15:08:00.871Z,47.93
2022-07-29T15:10:30.959Z,47.04
2022-07-29T15:13:00.159Z,47.04
2022-07-29T15:15:29.131Z,46.70
2022-07-29T15:17:57.809Z,46.89
2022-07-29T15:20:28.121Z,46.14
2022-07-29T15:22:57.040Z,44.53
2022-07-29T15:25:26.416Z,44.70
2022-07-29T15:28:01.701Z,44.54
2022-07-29T15:30:33.977Z,43.46
2022-07-29T15:33:04.711Z,43.55
2022-07-29T15:35:40.625Z,43.67
2022-07-29T15:38:09.856Z,44.13
2022-07-29T15:40:38.944Z,43.84
2022-07-29T15:43:09.090Z,43.98
2022-07-29T15:45:40.529Z,43.58
2022-07-29T15:48:13.233Z,43.82
2022-07-29T15:50:46.928Z,43.26
2022-07-29T15:53:16.110Z,43.63
2022-07-29T15:55:45.417Z,43.63
2022-07-29T15:58:15.471Z,43.78
2022-07-29T16:00:44.352Z,43.89
2022-07-29T16:03:13.354Z,44.03
2022-07-29T16:05:42.136Z,43.97
2022-07-29T16:08:10.892Z,44.26
2022-07-29T16:10:39.805Z,44.64
2022-07-29T16:13:08.767Z,44.89
2022-07-29T16:15:39.067Z,44.71
2022-07-29T16:18:08.967Z,45.26
2022-07-29T16:20:38.424Z,44.80
2022-07-29T16:23:07.767Z,44.93
2022-07-29T16:25:58.504Z,45.09
2022-07-29T16:28:25.534Z,44.41
2022-07-29T16:30:55.812Z,43.38
2022-07-29T16:33:24.603Z,43.18
2022-07-29T16:35:53.441Z,42.73
2022-07-29T16:38:22.329Z,42.55
2022-07-29T16:40:51.115Z,42.40
2022-07-29T16:43:19.929Z,42.25
2022-07-29T16:45:49.023Z,42.32
2022-07-29T16:48:19.771Z,41.67
2022-07-29T16:50:48.503Z,41.87
2022-07-29T16:53:17.377Z,41.96
2022-07-29T16:55:46.213Z,41.48
2022-07-29T16:58:14.900Z,41.46
2022-07-29T17:00:43.933Z,41.34
2022-07-29T17:03:12.828Z,40.85
2022-07-29T17:05:50.642Z,40.32
2022-07-29T17:08:23.089Z,40.85
2022-07-29T17:10:51.829Z,41.04
2022-07-29T17:13:20.762Z,40.62
2022-07-29T17:15:49.823Z,40.81
2022-07-29T17:18:18.657Z,40.55
2022-07-29T17:20:48.873Z,40.62
2022-07-29T17:23:17.771Z,40.35
2022-07-29T17:25:46.521Z,40.04
2022-07-29T17:28:15.241Z,40.55
2022-07-29T17:30:44.142Z,39.93
2022-07-29T17:33:12.839Z,40.21
2022-07-29T17:35:58.949Z,40.37
2022-07-29T17:38:29.185Z,40.62
2022-07-29T17:40:58.001Z,40.38
2022-07-29T17:43:26.819Z,40.47
2022-07-29T17:45:59.122Z,40.89
2022-07-29T17:48:28.342Z,40.54
2022-07-29T17:50:58.123Z,40.86
2022-07-29T17:53:26.796Z,40.89
2022-07-29T17:55:58.291Z,40.65
2022-07-29T17:58:27.510Z,40.95
2022-07-29T18:00:56.380Z,40.77
2022-07-29T18:03:25.455Z,41.05
2022-07-29T18:05:54.625Z,41.12
2022-07-29T18:08:23.418Z,41.17
2022-07-29T18:10:52.643Z,41.20
2022-07-29T18:13:23.047Z,41.22
2022-07-29T18:15:52.181Z,41.34
2022-07-29T18:18:21.197Z,41.30
2022-07-29T18:20:50.296Z,41.27
2022-07-29T18:23:19.074Z,41.27
2022-07-29T18:25:47.958Z,41.27
2022-07-29T18:28:16.830Z,41.26
2022-07-29T18:30:47.612Z,41.36
2022-07-29T18:33:22.034Z,41.48
2022-07-29T18:36:10.835Z,41.42
2022-07-29T18:38:41.199Z,41.61
2022-07-29T18:41:10.172Z,41.46
2022-07-29T18:43:38.907Z,41.65
2022-07-29T18:46:09.042Z,41.83
2022-07-29T18:48:38.315Z,41.70
2022-07-29T18:51:09.214Z,41.57
2022-07-29T18:53:38.577Z,41.89
2022-07-29T18:56:08.022Z,41.85
2022-07-29T18:58:38.301Z,41.72
2022-07-29T19:01:07.405Z,41.67
2022-07-29T19:03:37.695Z,42.00
2022-07-29T19:06:06.729Z,41.90
2022-07-29T19:08:38.468Z,41.98
2022-07-29T19:11:07.303Z,42.05
2022-07-29T19:13:37.118Z,42.19
2022-07-29T19:16:12.010Z,42.07
2022-07-29T19:18:43.170Z,42.08
2022-07-29T19:21:12.171Z,42.28
2022-07-29T19:24:01.671Z,42.37
2022-07-29T19:26:30.207Z,42.49
2022-07-29T19:28:58.918Z,42.30
2022-07-29T19:31:28.176Z,42.34
2022-07-29T19:33:58.537Z,42.52
2022-07-29T19:36:27.366Z,42.36
2022-07-29T19:38:56.090Z,42.52
2022-07-29T19:41:24.971Z,42.82
2022-07-29T19:43:53.723Z,42.62
2022-07-29T19:46:22.752Z,42.42
2022-07-29T19:48:53.009Z,42.54
2022-07-29T19:51:23.673Z,42.83
2022-07-29T19:53:52.469Z,42.63
2022-07-29T19:56:21.418Z,42.86
2022-07-29T19:58:53.026Z,43.00
2022-07-29T20:01:21.990Z,43.00
2022-07-29T20:03:50.710Z,43.10
2022-07-29T20:06:20.041Z,43.18
2022-07-29T20:08:55.382Z,43.16
2022-07-29T20:11:29.725Z,43.19
2022-07-29T20:13:58.714Z,43.16
2022-07-29T20:16:27.474Z,43.12
2022-07-29T20:18:56.220Z,43.42
2022-07-29T20:21:26.778Z,43.61
2022-07-29T20:24:00.384Z,43.77
2022-07-29T20:26:29.719Z,43.63
2022-07-29T20:28:58.633Z,43.91
2022-07-29T20:31:27.720Z,44.15
2022-07-29T20:33:56.631Z,44.08
2022-07-29T20:36:25.371Z,44.23
2022-07-29T20:38:54.349Z,44.41
2022-07-29T20:41:24.730Z,44.15
2022-07-29T20:43:53.438Z,44.17
2022-07-29T20:46:22.164Z,44.39
2022-07-29T20:48:51.171Z,44.41
2022-07-29T20:51:19.938Z,44.42
2022-07-29T20:53:49.179Z,44.75
2022-07-29T20:56:18.079Z,44.68
2022-07-29T20:58:48.158Z,44.66
2022-07-29T21:01:17.202Z,44.71
2022-07-29T21:03:46.167Z,44.83
2022-07-29T21:06:15.961Z,44.89
2022-07-29T21:08:44.636Z,44.75
2022-07-29T21:11:13.741Z,44.81
2022-07-29T21:13:44.924Z,44.81
2022-07-29T21:16:18.641Z,45.01
2022-07-29T21:18:47.950Z,45.08
2022-07-29T21:21:18.299Z,45.17
2022-07-29T21:23:47.301Z,45.37
2022-07-29T21:26:16.089Z,45.15
2022-07-29T21:28:44.183Z,45.11
2022-07-29T21:31:13.982Z,45.21
2022-07-29T21:33:45.877Z,45.35
2022-07-29T21:36:46.837Z,45.54
2022-07-29T21:39:07.251Z,45.40
2022-07-29T21:41:36.334Z,45.68
2022-07-29T21:44:05.216Z,45.49
2022-07-29T21:46:34.004Z,46.00
2022-07-29T21:49:04.602Z,45.87
2022-07-29T21:51:33.336Z,45.99
2022-07-29T21:54:02.064Z,46.17
2022-07-29T21:56:31.977Z,46.25
2022-07-29T21:59:01.444Z,46.15
2022-07-29T22:01:39.453Z,46.31
2022-07-29T22:04:09.969Z,46.40
2022-07-29T22:06:38.732Z,46.33
2022-07-29T22:09:07.711Z,46.64
2022-07-29T22:11:36.924Z,46.64
2022-07-29T22:14:07.345Z,46.93
2022-07-29T22:16:36.174Z,46.85
2022-07-29T22:19:05.119Z,46.99
2022-07-29T22:21:35.163Z,46.93
2022-07-29T22:24:04.181Z,46.98
2022-07-29T22:26:33.261Z,47.06
2022-07-29T22:29:01.970Z,47.13
2022-07-29T22:31:30.784Z,47.17
2022-07-29T22:33:59.712Z,47.09
2022-07-29T22:36:28.531Z,47.38
2022-07-29T22:38:58.593Z,47.47
2022-07-29T22:41:27.503Z,47.36
2022-07-29T22:43:56.250Z,47.39
2022-07-29T22:46:24.951Z,47.63
2022-07-29T22:48:54.046Z,47.68
2022-07-29T22:51:22.961Z,47.79
2022-07-29T22:53:51.927Z,47.71
2022-07-29T22:56:22.255Z,47.83
2022-07-29T22:58:50.997Z,48.01
2022-07-29T23:01:37.933Z,47.92
2022-07-29T23:04:07.613Z,47.98
2022-07-29T23:06:36.409Z,47.96
2022-07-29T23:09:05.381Z,48.04
2022-07-29T23:11:35.621Z,48.32
2022-07-29T23:14:04.294Z,48.33
2022-07-29T23:16:33.032Z,48.35
2022-07-29T23:19:02.277Z,48.29
2022-07-29T23:21:30.949Z,48.50
2022-07-29T23:23:59.872Z,48.40
2022-07-29T23:26:28.784Z,48.48
2022-07-29T23:28:58.915Z,48.38
2022-07-29T23:31:27.850Z,48.37
2022-07-29T23:33:56.724Z,48.43
2022-07-29T23:36:25.410Z,48.47
2022-07-29T23:38:55.275Z,48.34
2022-07-29T23:41:24.962Z,48.44
2022-07-29T23:43:53.829Z,48.48
2022-07-29T23:46:24.202Z,48.56
2022-07-29T23:48:53.380Z,48.50
2022-07-29T23:51:22.408Z,48.78
2022-07-29T23:53:53.862Z,49.13
2022-07-29T23:56:24.000Z,49.24
2022-07-29T23:58:52.858Z,49.35
